Time;durP1;ratioP1;P1;durP2;ratioP2;P2;SDS_P1;SDS_P2;PMS_P1;PMS_P2;Temp;Humidity;BMP_temperature;BMP_pressure;BME280_temperature;BME280_humidity;BME280_pressure;Samples;Min_cycle;Max_cycle;Signal;HPM_P1;HPM_P2
2021/04/02 00:00:50;;;;;;;5.70;1.23;;;;;;;;;;5058034;28;20048;-60
2021/04/02 00:03:22;;;;;;;3.50;1.42;;;;;;;;;;5057750;28;20030;-60
2021/04/02 00:05:53;;;;;;;3.65;1.17;;;;;;;;;;5057461;28;20031;-62
2021/04/02 00:08:22;;;;;;;1.00;1.00;;;;;;;;;;5054895;28;20117;-61
2021/04/02 00:10:47;;;;;;;1.63;0.82;;;;;;;;;;5063908;28;20096;-60
2021/04/02 00:13:17;;;;;;;1.33;0.90;;;;;;;;;;5080790;28;20048;-60
2021/04/02 00:15:42;;;;;;;2.80;1.05;;;;;;;;;;5080651;28;20032;-59
2021/04/02 00:18:10;;;;;;;9.80;2.03;;;;;;;;;;5079315;28;20024;-61
2021/04/02 00:20:36;;;;;;;6.15;1.30;;;;;;;;;;5083008;28;20070;-60
2021/04/02 00:23:07;;;;;;;3.63;1.02;;;;;;;;;;5081783;28;20051;-60
2021/04/02 00:25:36;;;;;;;5.75;1.10;;;;;;;;;;5081548;28;20209;-60
2021/04/02 00:28:08;;;;;;;5.93;0.90;;;;;;;;;;5066325;28;20027;-63
2021/04/02 00:30:38;;;;;;;1.40;0.95;;;;;;;;;;5064556;28;20093;-60
2021/04/02 00:33:06;;;;;;;6.55;1.08;;;;;;;;;;5079323;28;20020;-61
2021/04/02 00:35:32;;;;;;;5.72;1.20;;;;;;;;;;5083964;28;20019;-60
2021/04/02 00:38:04;;;;;;;6.43;1.30;;;;;;;;;;5080539;28;20476;-60
2021/04/02 00:40:31;;;;;;;5.53;2.03;;;;;;;;;;5084922;28;20021;-60
2021/04/02 00:43:00;;;;;;;4.03;1.52;;;;;;;;;;5080435;28;20048;-61
2021/04/02 00:45:28;;;;;;;5.78;1.50;;;;;;;;;;5080392;28;20418;-60
2021/04/02 00:47:55;;;;;;;1.33;1.23;;;;;;;;;;5081672;28;20424;-60
2021/04/02 00:50:40;;;;;;;3.20;1.50;;;;;;;;;;5079764;28;20039;-60
2021/04/02 00:53:08;;;;;;;4.68;1.20;;;;;;;;;;5079931;28;20039;-60
2021/04/02 00:55:37;;;;;;;7.00;1.65;;;;;;;;;;5064363;28;20023;-60
2021/04/02 00:58:04;;;;;;;4.45;1.10;;;;;;;;;;5080630;28;20652;-60
2021/04/02 01:00:32;;;;;;;4.57;1.40;;;;;;;;;;5082639;28;20476;-61
2021/04/02 01:02:57;;;;;;;4.55;1.52;;;;;;;;;;5081484;28;20035;-61
2021/04/02 01:05:29;;;;;;;3.30;1.83;;;;;;;;;;5081761;28;20040;-60
2021/04/02 01:08:00;;;;;;;10.75;1.77;;;;;;;;;;5077615;28;20183;-61
2021/04/02 01:10:29;;;;;;;1.30;1.08;;;;;;;;;;5084749;28;20424;-61
2021/04/02 01:13:15;;;;;;;9.50;2.03;;;;;;;;;;5079825;28;20025;-60
2021/04/02 01:16:09;;;;;;;3.63;1.48;;;;;;;;;;5081090;28;20480;-61
2021/04/02 01:18:37;;;;;;;3.42;1.85;;;;;;;;;;5067946;28;20048;-61
2021/04/02 01:21:14;;;;;;;7.10;1.92;;;;;;;;;;5083762;28;20024;-61
2021/04/02 01:23:54;;;;;;;1.10;1.02;;;;;;;;;;5063476;28;20341;-64
2021/04/02 01:26:27;;;;;;;5.38;1.58;;;;;;;;;;5079800;28;20349;-60
2021/04/02 01:29:10;;;;;;;4.63;1.65;;;;;;;;;;5079191;28;20033;-61
2021/04/02 01:31:37;;;;;;;1.98;1.42;;;;;;;;;;5079422;28;20431;-60
2021/04/02 01:34:03;;;;;;;8.00;2.45;;;;;;;;;;5079188;28;20558;-61
2021/04/02 01:36:30;;;;;;;6.55;1.52;;;;;;;;;;5078595;28;20484;-61
2021/04/02 01:38:58;;;;;;;1.88;1.15;;;;;;;;;;5079172;28;20032;-61
2021/04/02 01:41:28;;;;;;;6.78;2.58;;;;;;;;;;5079806;28;20704;-62
2021/04/02 01:43:55;;;;;;;5.15;1.42;;;;;;;;;;5041861;28;595825;-61
2021/04/02 01:46:24;;;;;;;9.00;1.75;;;;;;;;;;5062513;28;20120;-61
2021/04/02 01:48:52;;;;;;;1.60;1.13;;;;;;;;;;5078369;28;20490;-61
2021/04/02 01:51:23;;;;;;;4.85;2.00;;;;;;;;;;5080947;28;20483;-62
2021/04/02 01:53:49;;;;;;;3.80;1.40;;;;;;;;;;5081966;28;20039;-61
2021/04/02 01:56:19;;;;;;;2.65;1.63;;;;;;;;;;5080975;28;20496;-60
2021/04/02 01:58:46;;;;;;;2.30;1.25;;;;;;;;;;5083327;28;20039;-60
2021/04/02 02:01:15;;;;;;;3.58;1.67;;;;;;;;;;5084779;28;20036;-60
2021/04/02 02:03:50;;;;;;;7.90;1.10;;;;;;;;;;5085751;28;20047;-61
2021/04/02 02:06:19;;;;;;;8.85;1.65;;;;;;;;;;5084678;28;20032;-61
2021/04/02 02:08:47;;;;;;;4.07;0.90;;;;;;;;;;5082926;28;20430;-61
2021/04/02 02:11:16;;;;;;;5.82;1.38;;;;;;;;;;5065660;28;20034;-60
2021/04/02 02:13:43;;;;;;;5.25;0.95;;;;;;;;;;5084844;28;20032;-61
2021/04/02 02:16:11;;;;;;;5.30;1.10;;;;;;;;;;5084717;28;20039;-60
2021/04/02 02:18:41;;;;;;;6.72;1.27;;;;;;;;;;5084552;28;20388;-61
2021/04/02 02:21:08;;;;;;;5.90;1.45;;;;;;;;;;5082878;28;20558;-61
2021/04/02 02:23:33;;;;;;;8.18;1.60;;;;;;;;;;5085708;28;20418;-61
2021/04/02 02:26:04;;;;;;;7.97;0.98;;;;;;;;;;5086777;28;20082;-60
2021/04/02 02:28:30;;;;;;;8.07;1.40;;;;;;;;;;5086161;28;20070;-61
2021/04/02 02:30:58;;;;;;;10.35;1.05;;;;;;;;;;5066924;28;20029;-60
2021/04/02 02:33:29;;;;;;;12.98;1.67;;;;;;;;;;5052697;28;20036;-60
2021/04/02 02:35:54;;;;;;;11.95;2.03;;;;;;;;;;5084730;28;20681;-60
2021/04/02 02:38:27;;;;;;;3.38;1.00;;;;;;;;;;5081238;28;20970;-61
2021/04/02 02:40:53;;;;;;;6.20;1.27;;;;;;;;;;5082459;28;20028;-61
2021/04/02 02:43:19;;;;;;;4.55;1.15;;;;;;;;;;5084030;28;20040;-61
2021/04/02 02:45:44;;;;;;;10.50;1.83;;;;;;;;;;5085413;28;20982;-60
2021/04/02 02:48:11;;;;;;;6.28;1.48;;;;;;;;;;5084022;28;20050;-60
2021/04/02 02:50:43;;;;;;;5.20;1.27;;;;;;;;;;5082734;28;20086;-61
2021/04/02 02:53:10;;;;;;;7.15;1.40;;;;;;;;;;5083479;28;20020;-61
2021/04/02 02:55:40;;;;;;;8.25;1.35;;;;;;;;;;5084613;28;20028;-60
2021/04/02 02:58:07;;;;;;;8.55;1.27;;;;;;;;;;5079541;28;20966;-61
2021/04/02 03:00:35;;;;;;;3.58;1.10;;;;;;;;;;5083853;28;20573;-61
2021/04/02 03:03:04;;;;;;;11.90;1.80;;;;;;;;;;5085581;28;20781;-61
2021/04/02 03:05:30;;;;;;;7.60;1.58;;;;;;;;;;5084392;28;20032;-61
2021/04/02 03:08:01;;;;;;;8.85;1.15;;;;;;;;;;5065671;28;20517;-61
2021/04/02 03:10:30;;;;;;;10.98;2.03;;;;;;;;;;5084396;28;20051;-60
2021/04/02 03:12:57;;;;;;;5.72;1.45;;;;;;;;;;5085111;28;20039;-60
2021/04/02 03:15:25;;;;;;;10.55;1.73;;;;;;;;;;5086752;28;20031;-60
2021/04/02 03:18:02;;;;;;;9.13;1.73;;;;;;;;;;5084098;28;20455;-61
2021/04/02 03:20:32;;;;;;;3.63;1.30;;;;;;;;;;5083905;28;20124;-61
2021/04/02 03:22:58;;;;;;;4.75;1.33;;;;;;;;;;5068640;28;20032;-60
2021/04/02 03:25:26;;;;;;;4.40;1.50;;;;;;;;;;5067514;28;20046;-61
2021/04/02 03:27:53;;;;;;;2.03;1.20;;;;;;;;;;5083562;28;20036;-61
2021/04/02 03:30:22;;;;;;;5.90;1.90;;;;;;;;;;5083871;28;20496;-61
2021/04/02 03:32:55;;;;;;;1.60;1.00;;;;;;;;;;5083918;28;20032;-61
2021/04/02 03:35:25;;;;;;;11.75;1.73;;;;;;;;;;5081882;28;20078;-61
2021/04/02 03:37:51;;;;;;;4.28;1.58;;;;;;;;;;5063047;28;20033;-61
2021/04/02 03:40:19;;;;;;;3.47;1.42;;;;;;;;;;5081573;28;20024;-61
2021/04/02 03:42:50;;;;;;;7.65;1.48;;;;;;;;;;5082826;28;20458;-61
2021/04/02 03:45:16;;;;;;;10.35;1.65;;;;;;;;;;5067818;28;20052;-61
2021/04/02 03:47:45;;;;;;;6.80;1.70;;;;;;;;;;5084858;28;20031;-62
2021/04/02 03:50:16;;;;;;;3.38;1.90;;;;;;;;;;5082525;28;20148;-60
2021/04/02 03:52:44;;;;;;;5.75;1.85;;;;;;;;;;5085117;28;20164;-60
2021/04/02 03:55:13;;;;;;;14.55;2.08;;;;;;;;;;5084639;28;20052;-61
2021/04/02 03:57:43;;;;;;;3.28;1.20;;;;;;;;;;5065539;28;21832;-60
2021/04/02 04:00:14;;;;;;;7.65;1.63;;;;;;;;;;5083105;28;20036;-60
2021/04/02 04:02:40;;;;;;;9.27;1.58;;;;;;;;;;5082815;28;20040;-60
2021/04/02 04:05:09;;;;;;;7.28;2.17;;;;;;;;;;5084321;28;20024;-61
2021/04/02 04:07:38;;;;;;;11.20;2.22;;;;;;;;;;5083682;28;20133;-60
2021/04/02 04:10:04;;;;;;;9.13;2.47;;;;;;;;;;5064644;28;20103;-61
2021/04/02 04:12:30;;;;;;;5.45;2.08;;;;;;;;;;5066048;28;20087;-61
2021/04/02 04:14:57;;;;;;;12.07;2.15;;;;;;;;;;5056565;28;20083;-60
2021/04/02 04:17:26;;;;;;;17.98;2.95;;;;;;;;;;5057815;28;20036;-60
2021/04/02 04:19:54;;;;;;;8.48;2.08;;;;;;;;;;5045723;28;20043;-61
2021/04/02 04:22:22;;;;;;;10.63;1.33;;;;;;;;;;5057410;28;20039;-60
2021/04/02 04:24:51;;;;;;;6.00;1.90;;;;;;;;;;5058207;28;20515;-61
2021/04/02 04:27:19;;;;;;;3.30;1.35;;;;;;;;;;5057941;28;20020;-61
2021/04/02 04:29:50;;;;;;;13.60;1.75;;;;;;;;;;5056107;28;20075;-60
2021/04/02 04:32:19;;;;;;;14.32;1.42;;;;;;;;;;5058623;28;20082;-60
2021/04/02 04:34:49;;;;;;;13.55;1.10;;;;;;;;;;5072833;28;20503;-61
2021/04/02 04:37:16;;;;;;;8.55;0.70;;;;;;;;;;5055215;28;20031;-61
2021/04/02 04:39:45;;;;;;;4.40;1.23;;;;;;;;;;5055455;28;20886;-61
2021/04/02 04:42:15;;;;;;;9.25;1.52;;;;;;;;;;5057647;28;20032;-63
2021/04/02 04:44:41;;;;;;;6.85;1.42;;;;;;;;;;5056395;28;20071;-62
2021/04/02 04:47:07;;;;;;;6.88;1.38;;;;;;;;;;5058026;28;20063;-62
2021/04/02 04:49:37;;;;;;;4.13;1.42;;;;;;;;;;5059189;28;20111;-60
2021/04/02 04:52:04;;;;;;;2.42;1.00;;;;;;;;;;5032224;28;20024;-62
2021/04/02 04:54:33;;;;;;;12.80;1.77;;;;;;;;;;5056721;28;20060;-61
2021/04/02 04:57:00;;;;;;;9.10;1.70;;;;;;;;;;5056318;28;20095;-62
2021/04/02 04:59:29;;;;;;;13.30;1.85;;;;;;;;;;5059517;28;20031;-61
2021/04/02 05:01:57;;;;;;;5.65;1.55;;;;;;;;;;5059550;28;20024;-61
2021/04/02 05:04:26;;;;;;;4.70;1.05;;;;;;;;;;5054067;28;20036;-61
2021/04/02 05:06:56;;;;;;;8.15;1.92;;;;;;;;;;5055209;28;20036;-62
2021/04/02 05:09:25;;;;;;;6.53;1.52;;;;;;;;;;5039567;28;20039;-62
2021/04/02 05:11:53;;;;;;;4.53;1.08;;;;;;;;;;5057375;28;20062;-62
2021/04/02 05:14:22;;;;;;;7.00;1.98;;;;;;;;;;5058100;28;20040;-61
2021/04/02 05:16:49;;;;;;;3.15;1.27;;;;;;;;;;5057383;28;20032;-62
2021/04/02 05:19:18;;;;;;;4.15;1.67;;;;;;;;;;5057354;28;20024;-62
2021/04/02 05:21:47;;;;;;;10.32;2.28;;;;;;;;;;5055397;28;20684;-61
2021/04/02 05:24:20;;;;;;;13.65;1.63;;;;;;;;;;5060434;28;20036;-61
2021/04/02 05:26:46;;;;;;;6.63;1.67;;;;;;;;;;5039116;28;20406;-60
2021/04/02 05:29:14;;;;;;;9.82;1.65;;;;;;;;;;5063582;28;20032;-62
2021/04/02 05:31:45;;;;;;;10.38;1.20;;;;;;;;;;5057523;28;20027;-61
2021/04/02 05:34:13;;;;;;;5.72;1.55;;;;;;;;;;5056988;28;20032;-61
2021/04/02 05:36:38;;;;;;;9.07;1.48;;;;;;;;;;5071007;28;20507;-61
2021/04/02 05:39:04;;;;;;;4.38;1.15;;;;;;;;;;5053709;28;20043;-61
2021/04/02 05:41:40;;;;;;;3.47;1.05;;;;;;;;;;5038135;28;20033;-61
2021/04/02 05:44:10;;;;;;;3.42;0.95;;;;;;;;;;5056332;28;20083;-61
2021/04/02 05:46:43;;;;;;;7.03;2.28;;;;;;;;;;5070706;28;20031;-61
2021/04/02 05:49:15;;;;;;;5.93;1.63;;;;;;;;;;5057890;28;20115;-61
2021/04/02 05:51:41;;;;;;;2.70;1.20;;;;;;;;;;5059914;28;20032;-61
2021/04/02 05:54:09;;;;;;;7.55;1.77;;;;;;;;;;5056187;28;20055;-61
2021/04/02 05:56:35;;;;;;;8.00;1.42;;;;;;;;;;5054500;28;20308;-62
2021/04/02 05:59:02;;;;;;;5.85;1.48;;;;;;;;;;5057861;28;20040;-61
2021/04/02 06:01:34;;;;;;;7.22;1.20;;;;;;;;;;5041678;28;20033;-61
2021/04/02 06:04:00;;;;;;;11.02;1.63;;;;;;;;;;5057129;28;20055;-61
2021/04/02 06:06:28;;;;;;;11.65;1.52;;;;;;;;;;5057951;28;20060;-61
2021/04/02 06:08:54;;;;;;;9.75;2.22;;;;;;;;;;5053579;28;20589;-62
2021/04/02 06:11:22;;;;;;;3.75;1.92;;;;;;;;;;5055901;28;20036;-61
2021/04/02 06:13:51;;;;;;;7.95;2.47;;;;;;;;;;5058585;28;20400;-61
2021/04/02 06:16:17;;;;;;;7.47;1.42;;;;;;;;;;5057105;28;20024;-61
2021/04/02 06:18:44;;;;;;;18.63;3.13;;;;;;;;;;5055769;28;20029;-61
2021/04/02 06:21:15;;;;;;;7.95;1.67;;;;;;;;;;5043256;28;20052;-61
2021/04/02 06:23:41;;;;;;;8.77;1.65;;;;;;;;;;5057964;28;21918;-60
2021/04/02 06:26:13;;;;;;;5.88;1.50;;;;;;;;;;5056915;28;20064;-60
2021/04/02 06:28:41;;;;;;;7.50;1.77;;;;;;;;;;5054364;28;20020;-60
2021/04/02 06:31:16;;;;;;;12.68;2.13;;;;;;;;;;5057830;28;20024;-61
2021/04/02 06:33:45;;;;;;;6.40;1.33;;;;;;;;;;5054713;28;20982;-60
2021/04/02 06:36:15;;;;;;;11.85;1.95;;;;;;;;;;5055118;28;20073;-61
2021/04/02 06:38:42;;;;;;;16.42;2.08;;;;;;;;;;5054168;28;20110;-61
2021/04/02 06:41:07;;;;;;;6.18;1.30;;;;;;;;;;5058478;28;20513;-60
2021/04/02 06:43:41;;;;;;;8.45;1.40;;;;;;;;;;5055137;28;20058;-61
2021/04/02 06:46:12;;;;;;;9.63;1.98;;;;;;;;;;5058565;28;20058;-61
2021/04/02 06:48:41;;;;;;;4.47;1.25;;;;;;;;;;5059202;28;20091;-61
2021/04/02 06:51:15;;;;;;;5.28;1.50;;;;;;;;;;5056997;28;20128;-63
2021/04/02 06:53:45;;;;;;;8.65;2.85;;;;;;;;;;5057209;28;20032;-62
2021/04/02 06:56:14;;;;;;;5.88;1.25;;;;;;;;;;5058403;28;20034;-62
2021/04/02 06:58:43;;;;;;;16.92;1.95;;;;;;;;;;5058906;28;20119;-61
2021/04/02 07:01:10;;;;;;;18.00;1.98;;;;;;;;;;5058595;28;20024;-62
2021/04/02 07:03:36;;;;;;;7.15;1.45;;;;;;;;;;5059044;28;20032;-62
2021/04/02 07:06:07;;;;;;;5.68;1.10;;;;;;;;;;5060244;28;20032;-63
2021/04/02 07:08:37;;;;;;;14.77;1.58;;;;;;;;;;5060636;28;20017;-63
2021/04/02 07:11:06;;;;;;;4.50;1.15;;;;;;;;;;5075653;28;20036;-61
2021/04/02 07:13:36;;;;;;;16.50;2.17;;;;;;;;;;5057513;28;20067;-61
2021/04/02 07:16:06;;;;;;;7.45;1.05;;;;;;;;;;5048285;28;20073;-60
2021/04/02 07:18:36;;;;;;;12.82;1.67;;;;;;;;;;5056834;28;20086;-61
2021/04/02 07:21:02;;;;;;;9.65;0.75;;;;;;;;;;5058603;28;20054;-62
2021/04/02 07:23:27;;;;;;;14.75;1.23;;;;;;;;;;5060468;28;20994;-62
2021/04/02 07:25:55;;;;;;;5.30;0.80;;;;;;;;;;5059539;28;20036;-63
2021/04/02 07:28:21;;;;;;;13.85;1.55;;;;;;;;;;5059902;28;20032;-61
2021/04/02 07:30:47;;;;;;;11.90;1.73;;;;;;;;;;5059033;28;20027;-62
2021/04/02 07:33:13;;;;;;;8.07;1.63;;;;;;;;;;5057151;28;20618;-62
2021/04/02 07:35:39;;;;;;;5.22;1.42;;;;;;;;;;5059105;28;20024;-62
2021/04/02 07:38:14;;;;;;;7.70;1.00;;;;;;;;;;5057682;28;20495;-62
2021/04/02 07:40:39;;;;;;;7.97;1.25;;;;;;;;;;5060919;28;20036;-62
2021/04/02 07:43:06;;;;;;;8.50;1.42;;;;;;;;;;5046356;28;20068;-61
2021/04/02 07:45:34;;;;;;;11.23;1.58;;;;;;;;;;5058151;28;20939;-63
2021/04/02 07:48:11;;;;;;;7.50;1.50;;;;;;;;;;5072461;27;21006;-63
2021/04/02 07:50:39;;;;;;;10.70;1.67;;;;;;;;;;5056972;28;20040;-62
2021/04/02 07:53:05;;;;;;;11.40;1.10;;;;;;;;;;5059187;28;20028;-64
2021/04/02 07:55:36;;;;;;;6.72;1.48;;;;;;;;;;5059027;28;20032;-64
2021/04/02 07:58:04;;;;;;;7.72;1.33;;;;;;;;;;5043772;28;20348;-63
2021/04/02 08:00:32;;;;;;;6.60;0.90;;;;;;;;;;5057967;28;20387;-62
2021/04/02 08:03:08;;;;;;;7.28;1.40;;;;;;;;;;5059247;28;20684;-64
2021/04/02 08:05:36;;;;;;;11.65;1.08;;;;;;;;;;5058346;28;20020;-62
2021/04/02 08:08:06;;;;;;;6.20;1.42;;;;;;;;;;5058801;28;20040;-63
2021/04/02 08:10:35;;;;;;;5.55;0.80;;;;;;;;;;5060363;28;20029;-63
2021/04/02 08:13:14;;;;;;;6.72;1.13;;;;;;;;;;5041283;28;20143;-64
2021/04/02 08:15:49;;;;;;;6.93;0.85;;;;;;;;;;5058424;28;20605;-65
2021/04/02 08:18:21;;;;;;;11.07;1.40;;;;;;;;;;5052888;28;20031;-62
2021/04/02 08:20:54;;;;;;;7.43;1.00;;;;;;;;;;5041134;28;20024;-63
2021/04/02 08:23:24;;;;;;;8.57;1.15;;;;;;;;;;5056033;28;20038;-63
2021/04/02 08:25:55;;;;;;;2.33;0.85;;;;;;;;;;5057609;28;20074;-62
2021/04/02 08:28:24;;;;;;;7.43;1.08;;;;;;;;;;5058967;28;20039;-61
2021/04/02 08:30:52;;;;;;;12.85;1.50;;;;;;;;;;5045417;28;20093;-60
2021/04/02 08:33:20;;;;;;;11.18;1.40;;;;;;;;;;5056932;28;20028;-61
2021/04/02 08:35:46;;;;;;;5.68;1.05;;;;;;;;;;5057246;28;20520;-61
2021/04/02 08:38:12;;;;;;;8.88;1.20;;;;;;;;;;5057006;28;20024;-61
2021/04/02 08:40:41;;;;;;;7.32;1.02;;;;;;;;;;5056280;28;20045;-62
2021/04/02 08:43:08;;;;;;;5.95;0.65;;;;;;;;;;5055062;28;20028;-62
2021/04/02 08:45:38;;;;;;;9.35;1.63;;;;;;;;;;5058525;28;20036;-62
2021/04/02 08:48:04;;;;;;;7.22;0.93;;;;;;;;;;5057431;28;20051;-63
2021/04/02 08:50:29;;;;;;;5.53;0.95;;;;;;;;;;5057309;28;20033;-62
2021/04/02 08:53:02;;;;;;;4.57;1.15;;;;;;;;;;5059122;28;20059;-62
2021/04/02 08:55:28;;;;;;;13.30;1.10;;;;;;;;;;5055881;28;20032;-63
2021/04/02 08:57:54;;;;;;;18.88;1.25;;;;;;;;;;5058227;28;20032;-63
2021/04/02 09:00:20;;;;;;;3.47;0.70;;;;;;;;;;5057002;28;20032;-63
2021/04/02 09:02:49;;;;;;;5.82;1.02;;;;;;;;;;5041172;28;20060;-62
2021/04/02 09:05:17;;;;;;;5.22;1.30;;;;;;;;;;5056545;28;20055;-62
2021/04/02 09:07:43;;;;;;;9.93;1.73;;;;;;;;;;5043126;28;20032;-63
2021/04/02 09:10:13;;;;;;;6.20;1.40;;;;;;;;;;5060824;28;20031;-60
2021/04/02 09:12:48;;;;;;;6.20;1.10;;;;;;;;;;5056899;28;20033;-62
2021/04/02 09:15:20;;;;;;;6.10;1.08;;;;;;;;;;5057372;28;20555;-63
2021/04/02 09:17:46;;;;;;;8.00;0.95;;;;;;;;;;5057058;28;20048;-62
2021/04/02 09:20:13;;;;;;;9.48;1.58;;;;;;;;;;5044603;28;20043;-64
2021/04/02 09:22:40;;;;;;;5.15;1.13;;;;;;;;;;5055213;28;20050;-62
2021/04/02 09:25:07;;;;;;;8.13;1.00;;;;;;;;;;5052899;28;20032;-64
2021/04/02 09:27:37;;;;;;;14.95;1.67;;;;;;;;;;5044855;28;20106;-62
2021/04/02 09:30:06;;;;;;;6.50;0.85;;;;;;;;;;5055147;28;20801;-62
2021/04/02 09:32:32;;;;;;;8.25;1.02;;;;;;;;;;5055698;28;20084;-62
2021/04/02 09:35:01;;;;;;;5.07;1.08;;;;;;;;;;5062793;28;20394;-62
2021/04/02 09:37:30;;;;;;;7.70;1.33;;;;;;;;;;5055200;28;20051;-62
2021/04/02 09:40:08;;;;;;;4.18;1.08;;;;;;;;;;5055355;28;20090;-62
2021/04/02 09:42:37;;;;;;;6.32;0.98;;;;;;;;;;5057674;28;20498;-63
2021/04/02 09:45:06;;;;;;;10.68;1.58;;;;;;;;;;5054583;28;20077;-62
2021/04/02 09:47:39;;;;;;;10.23;1.20;;;;;;;;;;5056491;28;20024;-61
2021/04/02 09:50:10;;;;;;;10.82;1.45;;;;;;;;;;5057804;28;20020;-61
2021/04/02 09:52:37;;;;;;;7.35;0.95;;;;;;;;;;5057377;28;20044;-62
2021/04/02 09:55:04;;;;;;;8.55;1.23;;;;;;;;;;5056244;28;20062;-63
2021/04/02 09:57:32;;;;;;;4.18;1.05;;;;;;;;;;5054684;28;20031;-63
2021/04/02 10:00:00;;;;;;;10.30;1.77;;;;;;;;;;5056216;28;20033;-61
2021/04/02 10:02:28;;;;;;;7.00;1.33;;;;;;;;;;5059096;28;20036;-63
2021/04/02 10:04:56;;;;;;;8.88;0.90;;;;;;;;;;5071465;28;20039;-62
2021/04/02 10:07:22;;;;;;;7.25;0.82;;;;;;;;;;5054516;28;20028;-61
2021/04/02 10:09:48;;;;;;;5.28;1.10;;;;;;;;;;5058862;28;22379;-62
2021/04/02 10:12:16;;;;;;;4.63;0.98;;;;;;;;;;5056181;28;20090;-62
2021/04/02 10:14:43;;;;;;;8.25;1.42;;;;;;;;;;5056252;28;20764;-63
2021/04/02 10:17:16;;;;;;;7.85;1.40;;;;;;;;;;5057088;28;20461;-62
2021/04/02 10:19:44;;;;;;;11.60;1.15;;;;;;;;;;5058815;28;20048;-62
2021/04/02 10:22:09;;;;;;;10.15;1.33;;;;;;;;;;5044049;28;20032;-62
2021/04/02 10:24:35;;;;;;;6.15;1.55;;;;;;;;;;5056472;28;20032;-62
2021/04/02 10:27:01;;;;;;;9.02;1.13;;;;;;;;;;5042329;28;20583;-61
2021/04/02 10:29:31;;;;;;;3.85;0.90;;;;;;;;;;5065120;28;20538;-62
2021/04/02 10:31:59;;;;;;;7.00;1.23;;;;;;;;;;5060180;28;20028;-62
2021/04/02 10:34:29;;;;;;;11.30;1.42;;;;;;;;;;5061458;28;20079;-61
2021/04/02 10:36:57;;;;;;;10.43;1.30;;;;;;;;;;5042806;28;20102;-64
2021/04/02 10:39:23;;;;;;;5.55;1.52;;;;;;;;;;5043231;28;21222;-62
2021/04/02 10:41:50;;;;;;;3.65;0.47;;;;;;;;;;5057447;28;20455;-61
2021/04/02 10:44:21;;;;;;;5.25;1.02;;;;;;;;;;5042762;28;20062;-63
2021/04/02 10:46:46;;;;;;;3.97;0.82;;;;;;;;;;5043010;28;20064;-62
2021/04/02 10:49:14;;;;;;;5.25;1.05;;;;;;;;;;5058136;28;21068;-62
2021/04/02 10:51:42;;;;;;;9.68;1.13;;;;;;;;;;5057775;28;20063;-62
2021/04/02 10:54:10;;;;;;;8.88;0.75;;;;;;;;;;5059874;28;20128;-61
2021/04/02 10:56:36;;;;;;;4.13;0.80;;;;;;;;;;5059702;28;20054;-61
2021/04/02 10:59:09;;;;;;;9.65;1.27;;;;;;;;;;5060488;28;20110;-61
2021/04/02 11:01:40;;;;;;;6.88;1.23;;;;;;;;;;5058457;28;20933;-62
2021/04/02 11:04:05;;;;;;;3.97;1.17;;;;;;;;;;5058069;28;20158;-62
2021/04/02 11:06:31;;;;;;;6.60;0.90;;;;;;;;;;5041467;28;20042;-61
2021/04/02 11:08:57;;;;;;;4.65;1.13;;;;;;;;;;5059196;28;20032;-62
2021/04/02 11:11:25;;;;;;;5.88;1.02;;;;;;;;;;5055723;28;20031;-63
2021/04/02 11:13:53;;;;;;;3.42;0.70;;;;;;;;;;5059943;28;22052;-62
2021/04/02 11:16:18;;;;;;;7.43;1.40;;;;;;;;;;5058911;28;20032;-62
2021/04/02 11:18:46;;;;;;;9.13;1.33;;;;;;;;;;5058160;28;21987;-62
2021/04/02 11:21:14;;;;;;;6.88;1.55;;;;;;;;;;5062891;28;20044;-64
2021/04/02 11:23:42;;;;;;;3.30;1.33;;;;;;;;;;5056693;28;20037;-63
2021/04/02 11:26:11;;;;;;;4.85;1.10;;;;;;;;;;5059282;28;20067;-62
2021/04/02 11:28:41;;;;;;;7.18;1.08;;;;;;;;;;5045440;28;20679;-62
2021/04/02 11:31:09;;;;;;;3.25;0.90;;;;;;;;;;5041480;28;20074;-63
2021/04/02 11:33:35;;;;;;;9.55;1.48;;;;;;;;;;5058187;28;20036;-62
2021/04/02 11:36:03;;;;;;;9.07;1.83;;;;;;;;;;5058898;28;20035;-61
2021/04/02 11:38:30;;;;;;;7.53;1.10;;;;;;;;;;5060675;28;20040;-62
2021/04/02 11:40:58;;;;;;;5.97;1.40;;;;;;;;;;5061709;28;20127;-62
2021/04/02 11:43:29;;;;;;;10.23;1.17;;;;;;;;;;5056778;28;20042;-62
2021/04/02 11:45:54;;;;;;;5.38;1.45;;;;;;;;;;5045035;28;20106;-62
2021/04/02 11:48:25;;;;;;;11.25;1.30;;;;;;;;;;5056839;28;20427;-62
2021/04/02 11:50:55;;;;;;;6.28;1.10;;;;;;;;;;5059015;28;20798;-62
2021/04/02 11:53:20;;;;;;;7.97;1.27;;;;;;;;;;5047414;28;20055;-62
2021/04/02 11:55:48;;;;;;;3.15;1.10;;;;;;;;;;5058086;28;20028;-63
2021/04/02 11:58:16;;;;;;;2.55;0.70;;;;;;;;;;5056972;28;20032;-63
2021/04/02 12:00:44;;;;;;;4.32;0.80;;;;;;;;;;5058810;28;20090;-64
2021/04/02 12:03:10;;;;;;;7.15;1.23;;;;;;;;;;5060859;28;20059;-63
2021/04/02 12:05:36;;;;;;;9.13;1.23;;;;;;;;;;5057297;28;20037;-63
2021/04/02 12:08:03;;;;;;;6.38;0.80;;;;;;;;;;5061652;28;20104;-63
2021/04/02 12:10:31;;;;;;;8.68;0.82;;;;;;;;;;5059270;28;20043;-64
2021/04/02 12:13:01;;;;;;;1.48;0.50;;;;;;;;;;5057677;28;20127;-61
2021/04/02 12:15:27;;;;;;;2.90;0.80;;;;;;;;;;5043242;28;20043;-62
2021/04/02 12:17:52;;;;;;;5.65;1.05;;;;;;;;;;5058816;28;20036;-62
2021/04/02 12:20:18;;;;;;;5.40;1.08;;;;;;;;;;5045584;28;20190;-61
2021/04/02 12:22:45;;;;;;;5.70;0.65;;;;;;;;;;5060015;28;20081;-62
2021/04/02 12:25:11;;;;;;;4.88;0.93;;;;;;;;;;5057370;28;20037;-61
2021/04/02 12:27:37;;;;;;;3.38;0.70;;;;;;;;;;5061639;28;20024;-61
2021/04/02 12:30:08;;;;;;;4.88;0.70;;;;;;;;;;5057386;28;20051;-63
2021/04/02 12:32:34;;;;;;;4.07;0.50;;;;;;;;;;5060787;28;20079;-63
2021/04/02 12:35:03;;;;;;;2.15;0.77;;;;;;;;;;5056432;28;20057;-63
2021/04/02 12:37:28;;;;;;;5.43;0.88;;;;;;;;;;5061634;28;20028;-62
2021/04/02 12:39:55;;;;;;;6.50;1.10;;;;;;;;;;5056786;28;20498;-63
2021/04/02 12:42:20;;;;;;;2.30;0.60;;;;;;;;;;5056685;28;20064;-63
2021/04/02 12:44:46;;;;;;;1.90;0.80;;;;;;;;;;5055561;28;20040;-61
2021/04/02 12:47:11;;;;;;;3.47;0.98;;;;;;;;;;5057480;28;20059;-63
2021/04/02 12:49:37;;;;;;;2.72;0.70;;;;;;;;;;5041608;28;20105;-62
2021/04/02 12:52:03;;;;;;;2.88;0.80;;;;;;;;;;5058451;28;20032;-62
2021/04/02 12:54:33;;;;;;;4.05;0.75;;;;;;;;;;5057834;28;20040;-62
2021/04/02 12:56:59;;;;;;;3.10;1.00;;;;;;;;;;5044463;28;20146;-62
2021/04/02 12:59:26;;;;;;;11.20;1.35;;;;;;;;;;5044900;28;20061;-61
2021/04/02 13:01:54;;;;;;;3.85;0.82;;;;;;;;;;5060195;28;20032;-62
2021/04/02 13:04:22;;;;;;;4.82;0.77;;;;;;;;;;5056455;28;20024;-63
2021/04/02 13:06:48;;;;;;;6.28;0.77;;;;;;;;;;5061767;28;20039;-66
2021/04/02 13:09:13;;;;;;;5.68;1.10;;;;;;;;;;5056843;28;20020;-63
2021/04/02 13:11:42;;;;;;;5.60;1.00;;;;;;;;;;5056802;28;20024;-63
2021/04/02 13:14:11;;;;;;;3.70;0.60;;;;;;;;;;5057810;28;20101;-63
2021/04/02 13:16:37;;;;;;;3.08;0.52;;;;;;;;;;5056343;28;20755;-65
2021/04/02 13:19:09;;;;;;;6.32;0.82;;;;;;;;;;5056484;28;20206;-62
2021/04/02 13:21:34;;;;;;;2.45;0.98;;;;;;;;;;5057055;28;20032;-63
2021/04/02 13:24:20;;;;;;;6.72;1.25;;;;;;;;;;5058038;28;20032;-63
2021/04/02 13:26:48;;;;;;;6.25;1.00;;;;;;;;;;5058579;28;20064;-63
2021/04/02 13:29:14;;;;;;;5.88;1.38;;;;;;;;;;5058241;28;20126;-63
2021/04/02 13:31:40;;;;;;;8.25;1.50;;;;;;;;;;5054891;28;20147;-63
2021/04/02 13:34:05;;;;;;;3.17;0.60;;;;;;;;;;5055940;28;20036;-62
2021/04/02 13:36:33;;;;;;;10.93;1.10;;;;;;;;;;5056709;28;20742;-62
2021/04/02 13:39:00;;;;;;;9.05;0.93;;;;;;;;;;5038292;28;20094;-62
2021/04/02 13:41:28;;;;;;;8.40;1.20;;;;;;;;;;5058338;28;20032;-63
2021/04/02 13:43:54;;;;;;;5.10;1.02;;;;;;;;;;5327118;23;20048;-62
2021/04/02 13:46:19;;;;;;;4.22;1.05;;;;;;;;;;5063509;28;20028;-64
2021/04/02 13:48:45;;;;;;;7.68;1.20;;;;;;;;;;5085489;27;20482;-64
2021/04/02 13:51:14;;;;;;;4.05;1.05;;;;;;;;;;5064362;28;20032;-64
2021/04/02 13:53:42;;;;;;;9.60;1.15;;;;;;;;;;5085524;27;20031;-64
2021/04/02 13:56:10;;;;;;;7.22;1.02;;;;;;;;;;5074667;28;20028;-64
2021/04/02 13:58:36;;;;;;;2.78;0.60;;;;;;;;;;5091598;27;20861;-65
2021/04/02 14:01:01;;;;;;;7.05;1.33;;;;;;;;;;5057472;27;20043;-64
2021/04/02 14:03:29;;;;;;;7.22;1.27;;;;;;;;;;5087602;27;20027;-63
2021/04/02 14:05:55;;;;;;;8.88;1.45;;;;;;;;;;5073474;27;20150;-64
2021/04/02 14:08:23;;;;;;;5.22;1.33;;;;;;;;;;5067532;27;20039;-66
2021/04/02 14:10:49;;;;;;;7.65;1.23;;;;;;;;;;5085922;27;20529;-65
2021/04/02 14:13:14;;;;;;;9.15;1.40;;;;;;;;;;5085478;27;20034;-63
2021/04/02 14:15:40;;;;;;;11.48;1.55;;;;;;;;;;5089046;27;20035;-62
2021/04/02 14:18:06;;;;;;;13.38;1.80;;;;;;;;;;5054725;27;20035;-62
2021/04/02 14:20:38;;;;;;;5.93;1.50;;;;;;;;;;5056756;27;20751;-64
2021/04/02 14:23:04;;;;;;;5.63;1.40;;;;;;;;;;5072182;28;20171;-63
2021/04/02 14:25:29;;;;;;;8.20;1.55;;;;;;;;;;5071553;27;20502;-62
2021/04/02 14:27:57;;;;;;;7.30;1.55;;;;;;;;;;5087530;27;20430;-62
2021/04/02 14:30:27;;;;;;;8.13;1.65;;;;;;;;;;5089120;27;20031;-63
2021/04/02 14:32:55;;;;;;;6.78;1.40;;;;;;;;;;5068614;27;20438;-63
2021/04/02 14:35:30;;;;;;;7.47;1.70;;;;;;;;;;5053254;27;20041;-63
2021/04/02 14:37:59;;;;;;;5.97;1.45;;;;;;;;;;5068934;27;20209;-66
2021/04/02 14:40:27;;;;;;;8.07;1.42;;;;;;;;;;5071316;27;20031;-64
2021/04/02 14:42:52;;;;;;;14.02;1.85;;;;;;;;;;5067001;27;20020;-62
2021/04/02 14:45:20;;;;;;;11.23;2.10;;;;;;;;;;5066677;27;20059;-64
2021/04/02 14:47:50;;;;;;;6.53;1.17;;;;;;;;;;5088466;27;20035;-64